createdAt,value
2023-03-23T15:58:43.242Z,3.13
2023-03-23T16:01:13.327Z,2.17
2023-03-23T16:03:45.803Z,2.80
2023-03-23T16:06:23.454Z,2.47
2023-03-23T16:08:53.878Z,2.38
2023-03-23T16:11:27.428Z,2.10
2023-03-23T16:13:56.929Z,2.45
2023-03-23T16:16:32.353Z,3.47
2023-03-23T16:19:02.020Z,3.45
2023-03-23T16:21:29.163Z,2.60
2023-03-23T16:23:57.024Z,3.40
2023-03-23T16:26:24.715Z,2.40
2023-03-23T16:29:02.719Z,2.88
2023-03-23T16:31:37.339Z,1.95
2023-03-23T16:34:09.475Z,2.28
2023-03-23T16:36:36.739Z,2.83
2023-03-23T16:39:06.509Z,2.42
2023-03-23T16:41:35.802Z,2.78
2023-03-23T16:44:05.333Z,2.50
2023-03-23T16:46:34.561Z,2.33
2023-03-23T16:49:04.220Z,2.72
2023-03-23T16:51:36.132Z,2.65
2023-03-23T16:54:07.944Z,2.50
2023-03-23T16:56:40.421Z,2.30
2023-03-23T16:59:10.758Z,2.83
2023-03-23T17:01:41.204Z,2.13
2023-03-23T17:04:12.063Z,3.00
2023-03-23T17:06:39.232Z,2.42
2023-03-23T17:09:07.405Z,2.17
2023-03-23T17:11:39.157Z,2.63
2023-03-23T17:14:08.642Z,2.67
2023-03-23T17:16:35.779Z,2.85
2023-03-23T17:19:07.138Z,2.65
2023-03-23T17:21:35.306Z,2.15
2023-03-23T17:24:05.000Z,2.58
2023-03-23T17:26:35.258Z,2.40
2023-03-23T17:29:07.311Z,2.47
2023-03-23T17:31:34.527Z,2.42
2023-03-23T17:34:01.866Z,2.40
2023-03-23T17:36:33.835Z,2.35
2023-03-23T17:39:03.282Z,2.60
2023-03-23T17:41:30.520Z,1.90
2023-03-23T17:43:57.714Z,2.60
2023-03-23T17:46:29.746Z,2.50
2023-03-23T17:48:56.894Z,3.00
2023-03-23T17:51:28.687Z,2.92
2023-03-23T17:53:58.270Z,2.88
2023-03-23T17:56:25.506Z,2.20
2023-03-23T17:58:54.792Z,2.80
2023-03-23T18:01:21.967Z,2.67
2023-03-23T18:03:51.556Z,3.30
2023-03-23T18:06:21.329Z,2.75
2023-03-23T18:08:50.652Z,2.60
2023-03-23T18:11:17.855Z,2.97
2023-03-23T18:13:47.345Z,2.80
2023-03-23T18:16:14.482Z,2.67
2023-03-23T18:18:41.781Z,2.70
2023-03-23T18:21:10.946Z,2.60
2023-03-23T18:23:46.206Z,2.80
2023-03-23T18:26:16.957Z,2.65
2023-03-23T18:28:46.243Z,2.88
2023-03-23T18:31:22.663Z,2.90
2023-03-23T18:33:54.894Z,3.30
2023-03-23T18:36:27.625Z,2.35
2023-03-23T18:38:57.021Z,2.37
2023-03-23T18:41:24.541Z,2.70
2023-03-23T18:43:56.284Z,2.50
2023-03-23T18:46:29.332Z,2.85
2023-03-23T18:48:58.932Z,2.60
2023-03-23T18:51:26.280Z,2.75
2023-03-23T18:53:55.909Z,2.63
2023-03-23T18:56:23.371Z,2.88
2023-03-23T18:58:54.741Z,2.53
2023-03-23T19:01:26.533Z,2.58
2023-03-23T19:03:56.221Z,2.38
2023-03-23T19:06:27.735Z,2.40
2023-03-23T19:08:54.873Z,2.80
2023-03-23T19:11:26.235Z,2.70
2023-03-23T19:16:34.005Z,2.95
2023-03-23T19:19:02.692Z,2.33
2023-03-23T19:21:32.025Z,2.15
2023-03-23T19:24:02.348Z,2.75
2023-03-23T19:26:37.849Z,2.27
2023-03-23T19:31:37.780Z,2.33
2023-03-23T19:34:07.475Z,2.45
2023-03-23T19:36:39.884Z,2.33
2023-03-23T19:39:10.158Z,2.50
2023-03-23T19:41:41.769Z,2.80
2023-03-23T19:44:11.520Z,2.28
2023-03-23T19:46:41.331Z,2.25
2023-03-23T19:49:08.711Z,2.28
2023-03-23T19:51:35.990Z,2.63
2023-03-23T19:54:03.585Z,2.20
2023-03-23T19:56:30.893Z,2.50
2023-03-23T19:59:02.573Z,2.10
2023-03-23T20:01:29.912Z,2.33
2023-03-23T20:04:01.878Z,2.00
2023-03-23T20:06:34.118Z,1.98
2023-03-23T20:09:02.013Z,2.23
2023-03-23T20:11:30.506Z,2.03
2023-03-23T20:14:00.000Z,1.88
2023-03-23T20:16:29.619Z,1.90
2023-03-23T20:19:00.293Z,2.15
2023-03-23T20:21:30.976Z,1.63
2023-03-23T20:23:58.744Z,1.90
2023-03-23T20:26:35.723Z,2.17
2023-03-23T20:29:07.308Z,2.13
2023-03-23T20:31:40.164Z,2.00
2023-03-23T20:34:11.033Z,1.95
2023-03-23T20:36:46.059Z,2.10
2023-03-23T20:39:23.474Z,2.15
2023-03-23T20:41:54.551Z,2.22
2023-03-23T20:44:25.241Z,1.98
2023-03-23T20:46:53.680Z,2.13
2023-03-23T20:49:24.304Z,2.47
2023-03-23T20:51:52.142Z,1.60
2023-03-23T20:54:22.127Z,2.03
2023-03-23T20:56:49.615Z,2.00
2023-03-23T20:59:21.871Z,1.85
2023-03-23T21:01:51.256Z,2.37
2023-03-23T21:04:20.853Z,1.70
2023-03-23T21:06:52.065Z,1.80
2023-03-23T21:09:22.008Z,2.33
2023-03-23T21:11:52.091Z,1.98
2023-03-23T21:14:27.013Z,1.95
2023-03-23T21:16:58.340Z,2.75
2023-03-23T21:19:29.653Z,1.95
2023-03-23T21:22:00.221Z,1.85
2023-03-23T21:24:31.351Z,1.75
2023-03-23T21:27:01.192Z,1.55
2023-03-23T21:29:28.602Z,2.00
2023-03-23T21:34:31.681Z,1.90
2023-03-23T21:37:03.620Z,1.80
2023-03-23T21:39:33.672Z,1.60
2023-03-23T21:42:06.930Z,1.80
2023-03-23T21:44:39.154Z,1.90
2023-03-23T21:47:06.537Z,2.15
2023-03-23T21:49:33.989Z,2.10
2023-03-23T21:52:02.174Z,1.63
2023-03-23T21:54:34.375Z,1.85
2023-03-23T21:57:03.855Z,1.90
2023-03-23T21:59:33.893Z,1.38
2023-03-23T22:02:02.053Z,1.52
2023-03-23T22:04:31.677Z,1.42
2023-03-23T22:07:03.489Z,1.90
2023-03-23T22:09:34.393Z,2.07
2023-03-23T22:12:05.199Z,1.70
2023-03-23T22:14:32.414Z,1.40
2023-03-23T22:17:02.432Z,1.60
2023-03-23T22:19:33.139Z,1.77
2023-03-23T22:22:00.995Z,1.83
2023-03-23T22:24:28.249Z,1.70
2023-03-23T22:27:00.684Z,1.90
2023-03-23T22:29:30.085Z,1.77
2023-03-23T22:31:57.249Z,1.58
2023-03-23T22:34:32.567Z,1.65
2023-03-23T22:37:05.607Z,2.10
2023-03-23T22:39:32.849Z,1.77
2023-03-23T22:42:00.407Z,1.63
2023-03-23T22:44:27.639Z,1.73
2023-03-23T22:46:55.075Z,1.40
2023-03-23T22:49:22.307Z,1.70
2023-03-23T22:51:51.541Z,1.70
2023-03-23T22:54:18.846Z,1.80
2023-03-23T22:56:50.631Z,1.73
2023-03-23T22:59:25.876Z,1.83
2023-03-23T23:01:55.681Z,2.23
2023-03-23T23:04:27.891Z,2.10
2023-03-23T23:07:06.673Z,1.80
2023-03-23T23:09:43.860Z,2.10
2023-03-23T23:12:35.243Z,1.70
2023-03-23T23:15:07.113Z,2.00
2023-03-23T23:17:34.873Z,2.15
2023-03-23T23:20:05.646Z,1.50
2023-03-23T23:22:33.795Z,1.70
2023-03-23T23:25:01.249Z,1.90
2023-03-23T23:27:31.426Z,2.00
2023-03-23T23:30:01.027Z,1.90
2023-03-23T23:32:32.253Z,1.97
2023-03-23T23:35:02.442Z,2.10
2023-03-23T23:37:29.695Z,2.07
2023-03-23T23:39:56.958Z,2.10
2023-03-23T23:42:25.589Z,1.80
2023-03-23T23:44:55.100Z,2.00
2023-03-23T23:47:22.351Z,1.60
2023-03-23T23:49:51.926Z,1.88
2023-03-23T23:52:25.886Z,1.47
2023-03-23T23:54:55.088Z,1.50
2023-03-23T23:57:27.186Z,1.85
2023-03-23T23:59:54.356Z,1.87
